sensor_id;sensor_type;location;lat;lon;timestamp;P1;durP1;ratioP1;P2;durP2;ratioP2
9976;SDS011;5029;47.378;11.776;2022-08-20T00:20:14;1.67;;;1.03;;
9976;SDS011;5029;47.378;11.776;2022-08-20T03:32:52;2.67;;;1.80;;
9976;SDS011;5029;47.378;11.776;2022-08-20T03:37:56;1.70;;;1.60;;
9976;SDS011;5029;47.378;11.776;2022-08-20T03:43:00;2.03;;;1.83;;
9976;SDS011;5029;47.378;11.776;2022-08-20T03:48:07;1.87;;;1.70;;
9976;SDS011;5029;47.378;11.776;2022-08-20T03:59:21;2.20;;;2.10;;
9976;SDS011;5029;47.378;11.776;2022-08-20T04:04:26;3.90;;;2.33;;
9976;SDS011;5029;47.378;11.776;2022-08-20T04:09:30;3.10;;;2.20;;
9976;SDS011;5029;47.378;11.776;2022-08-20T04:14:33;2.47;;;2.10;;
9976;SDS011;5029;47.378;11.776;2022-08-20T04:19:39;3.43;;;2.30;;
9976;SDS011;5029;47.378;11.776;2022-08-20T04:24:44;2.87;;;2.10;;
9976;SDS011;5029;47.378;11.776;2022-08-20T04:29:47;3.53;;;2.40;;
9976;SDS011;5029;47.378;11.776;2022-08-20T04:34:52;3.43;;;2.00;;
9976;SDS011;5029;47.378;11.776;2022-08-20T04:39:56;2.40;;;2.20;;
9976;SDS011;5029;47.378;11.776;2022-08-20T04:45:17;2.57;;;2.37;;
9976;SDS011;5029;47.378;11.776;2022-08-20T04:50:24;2.50;;;2.30;;
9976;SDS011;5029;47.378;11.776;2022-08-20T04:55:27;2.40;;;2.20;;
9976;SDS011;5029;47.378;11.776;2022-08-20T05:00:32;2.20;;;2.00;;
9976;SDS011;5029;47.378;11.776;2022-08-20T05:05:37;2.20;;;2.00;;
9976;SDS011;5029;47.378;11.776;2022-08-20T05:10:41;2.10;;;1.83;;
9976;SDS011;5029;47.378;11.776;2022-08-20T05:15:46;2.13;;;1.93;;
9976;SDS011;5029;47.378;11.776;2022-08-20T05:20:53;2.10;;;1.90;;
9976;SDS011;5029;47.378;11.776;2022-08-20T05:26:06;1.70;;;1.60;;
9976;SDS011;5029;47.378;11.776;2022-08-20T05:31:13;1.73;;;1.60;;
9976;SDS011;5029;47.378;11.776;2022-08-20T05:36:18;2.30;;;1.70;;
9976;SDS011;5029;47.378;11.776;2022-08-20T05:41:22;1.80;;;1.70;;
9976;SDS011;5029;47.378;11.776;2022-08-20T05:46:30;2.27;;;1.70;;
9976;SDS011;5029;47.378;11.776;2022-08-20T05:51:35;1.90;;;1.80;;
9976;SDS011;5029;47.378;11.776;2022-08-20T05:56:39;1.80;;;1.70;;
9976;SDS011;5029;47.378;11.776;2022-08-20T06:01:43;2.13;;;1.80;;
9976;SDS011;5029;47.378;11.776;2022-08-20T06:06:50;2.50;;;2.00;;
9976;SDS011;5029;47.378;11.776;2022-08-20T06:12:04;2.33;;;2.13;;
9976;SDS011;5029;47.378;11.776;2022-08-20T06:17:10;2.47;;;2.27;;
9976;SDS011;5029;47.378;11.776;2022-08-20T06:22:17;2.40;;;2.20;;
9976;SDS011;5029;47.378;11.776;2022-08-20T06:27:27;2.47;;;2.13;;
9976;SDS011;5029;47.378;11.776;2022-08-20T06:32:30;1.60;;;1.50;;
9976;SDS011;5029;47.378;11.776;2022-08-20T06:37:37;1.87;;;1.50;;
9976;SDS011;5029;47.378;11.776;2022-08-20T06:42:42;1.80;;;1.70;;
9976;SDS011;5029;47.378;11.776;2022-08-20T06:47:51;2.57;;;1.97;;
9976;SDS011;5029;47.378;11.776;2022-08-20T06:53:08;2.37;;;1.90;;
9976;SDS011;5029;47.378;11.776;2022-08-20T06:59:19;2.17;;;1.97;;
9976;SDS011;5029;47.378;11.776;2022-08-20T07:04:45;1.70;;;1.60;;
9976;SDS011;5029;47.378;11.776;2022-08-20T07:10:02;1.77;;;1.67;;
9976;SDS011;5029;47.378;11.776;2022-08-20T07:15:21;2.03;;;1.80;;
9976;SDS011;5029;47.378;11.776;2022-08-20T07:20:36;3.67;;;1.80;;
9976;SDS011;5029;47.378;11.776;2022-08-20T07:25:45;2.30;;;1.60;;
9976;SDS011;5029;47.378;11.776;2022-08-20T07:31:03;1.77;;;1.67;;
9976;SDS011;5029;47.378;11.776;2022-08-20T07:36:31;2.07;;;1.90;;
9976;SDS011;5029;47.378;11.776;2022-08-20T07:41:39;3.73;;;2.00;;
9976;SDS011;5029;47.378;11.776;2022-08-20T07:46:58;2.73;;;1.67;;
9976;SDS011;5029;47.378;11.776;2022-08-20T07:52:07;2.53;;;1.90;;
9976;SDS011;5029;47.378;11.776;2022-08-20T07:57:14;1.80;;;1.70;;
9976;SDS011;5029;47.378;11.776;2022-08-20T08:02:25;2.67;;;1.70;;
9976;SDS011;5029;47.378;11.776;2022-08-20T08:08:19;2.70;;;1.80;;
9976;SDS011;5029;47.378;11.776;2022-08-20T08:13:46;2.93;;;1.70;;
9976;SDS011;5029;47.378;11.776;2022-08-20T08:18:58;2.13;;;1.60;;
9976;SDS011;5029;47.378;11.776;2022-08-20T08:24:06;2.33;;;1.30;;
9976;SDS011;5029;47.378;11.776;2022-08-20T08:29:51;1.70;;;1.60;;
9976;SDS011;5029;47.378;11.776;2022-08-20T08:35:20;1.60;;;1.50;;
9976;SDS011;5029;47.378;11.776;2022-08-20T08:40:37;1.60;;;1.50;;
9976;SDS011;5029;47.378;11.776;2022-08-20T08:46:18;1.50;;;1.20;;
9976;SDS011;5029;47.378;11.776;2022-08-20T08:51:36;1.40;;;1.30;;
9976;SDS011;5029;47.378;11.776;2022-08-20T08:56:49;1.40;;;1.30;;
9976;SDS011;5029;47.378;11.776;2022-08-20T09:01:58;1.70;;;1.60;;
9976;SDS011;5029;47.378;11.776;2022-08-20T09:07:14;1.60;;;1.50;;
9976;SDS011;5029;47.378;11.776;2022-08-20T09:12:21;2.00;;;1.57;;
9976;SDS011;5029;47.378;11.776;2022-08-20T09:17:33;2.50;;;2.07;;
9976;SDS011;5029;47.378;11.776;2022-08-20T09:22:39;2.30;;;2.10;;
9976;SDS011;5029;47.378;11.776;2022-08-20T09:27:49;2.40;;;2.20;;
9976;SDS011;5029;47.378;11.776;2022-08-20T09:32:57;2.30;;;2.10;;
9976;SDS011;5029;47.378;11.776;2022-08-20T09:38:03;2.53;;;2.33;;
9976;SDS011;5029;47.378;11.776;2022-08-20T09:48:42;3.63;;;2.20;;
9976;SDS011;5029;47.378;11.776;2022-08-20T09:54:00;2.90;;;2.67;;
9976;SDS011;5029;47.378;11.776;2022-08-20T09:59:04;2.77;;;2.30;;
9976;SDS011;5029;47.378;11.776;2022-08-20T10:04:11;2.67;;;2.47;;
9976;SDS011;5029;47.378;11.776;2022-08-20T10:09:18;2.87;;;2.13;;
9976;SDS011;5029;47.378;11.776;2022-08-20T10:14:24;3.03;;;2.73;;
9976;SDS011;5029;47.378;11.776;2022-08-20T10:19:31;2.67;;;2.47;;
9976;SDS011;5029;47.378;11.776;2022-08-20T10:24:38;2.90;;;2.60;;
9976;SDS011;5029;47.378;11.776;2022-08-20T10:29:42;2.70;;;2.50;;
9976;SDS011;5029;47.378;11.776;2022-08-20T10:34:50;2.83;;;2.53;;
9976;SDS011;5029;47.378;11.776;2022-08-20T10:39:57;3.70;;;2.60;;
9976;SDS011;5029;47.378;11.776;2022-08-20T10:45:20;4.43;;;3.20;;
9976;SDS011;5029;47.378;11.776;2022-08-20T10:50:38;3.03;;;2.83;;
9976;SDS011;5029;47.378;11.776;2022-08-20T10:55:45;3.43;;;2.93;;
9976;SDS011;5029;47.378;11.776;2022-08-20T11:00:50;2.70;;;2.50;;
9976;SDS011;5029;47.378;11.776;2022-08-20T11:11:23;2.97;;;2.77;;
9976;SDS011;5029;47.378;11.776;2022-08-20T11:16:42;3.87;;;3.00;;
9976;SDS011;5029;47.378;11.776;2022-08-20T11:46:33;2.47;;;2.30;;
9976;SDS011;5029;47.378;11.776;2022-08-20T11:57:43;2.97;;;2.67;;
9976;SDS011;5029;47.378;11.776;2022-08-20T12:02:54;3.17;;;2.80;;
9976;SDS011;5029;47.378;11.776;2022-08-20T12:08:21;3.07;;;2.77;;
9976;SDS011;5029;47.378;11.776;2022-08-20T12:13:55;2.80;;;2.60;;
9976;SDS011;5029;47.378;11.776;2022-08-20T12:19:04;3.00;;;2.77;;
9976;SDS011;5029;47.378;11.776;2022-08-20T12:24:13;2.87;;;2.63;;
9976;SDS011;5029;47.378;11.776;2022-08-20T12:29:22;3.40;;;3.10;;
9976;SDS011;5029;47.378;11.776;2022-08-20T12:40:32;4.20;;;2.63;;
9976;SDS011;5029;47.378;11.776;2022-08-20T12:45:43;2.80;;;2.40;;
9976;SDS011;5029;47.378;11.776;2022-08-20T12:50:50;1.93;;;1.83;;
9976;SDS011;5029;47.378;11.776;2022-08-20T12:56:07;2.50;;;2.30;;
9976;SDS011;5029;47.378;11.776;2022-08-20T13:01:18;3.10;;;2.87;;
9976;SDS011;5029;47.378;11.776;2022-08-20T13:06:22;3.63;;;3.33;;
9976;SDS011;5029;47.378;11.776;2022-08-20T13:11:30;4.30;;;3.90;;
9976;SDS011;5029;47.378;11.776;2022-08-20T13:16:34;3.50;;;3.20;;
9976;SDS011;5029;47.378;11.776;2022-08-20T13:21:38;4.37;;;4.07;;
9976;SDS011;5029;47.378;11.776;2022-08-20T13:26:43;7.03;;;6.53;;
9976;SDS011;5029;47.378;11.776;2022-08-20T13:31:47;8.37;;;7.67;;
9976;SDS011;5029;47.378;11.776;2022-08-20T13:36:51;7.30;;;6.80;;
9976;SDS011;5029;47.378;11.776;2022-08-20T13:41:57;5.87;;;5.47;;
9976;SDS011;5029;47.378;11.776;2022-08-20T13:47:14;5.57;;;5.17;;
9976;SDS011;5029;47.378;11.776;2022-08-20T13:52:37;6.63;;;6.13;;
9976;SDS011;5029;47.378;11.776;2022-08-20T13:57:50;5.17;;;4.77;;
9976;SDS011;5029;47.378;11.776;2022-08-20T14:03:03;4.70;;;4.30;;
9976;SDS011;5029;47.378;11.776;2022-08-20T14:08:10;4.10;;;3.80;;
9976;SDS011;5029;47.378;11.776;2022-08-20T14:13:35;4.23;;;3.90;;
9976;SDS011;5029;47.378;11.776;2022-08-20T14:18:49;3.63;;;3.33;;
9976;SDS011;5029;47.378;11.776;2022-08-20T14:23:54;3.90;;;3.60;;
9976;SDS011;5029;47.378;11.776;2022-08-20T14:29:00;3.60;;;3.30;;
9976;SDS011;5029;47.378;11.776;2022-08-20T14:34:04;3.57;;;3.27;;
9976;SDS011;5029;47.378;11.776;2022-08-20T14:39:07;4.23;;;3.20;;
9976;SDS011;5029;47.378;11.776;2022-08-20T14:44:12;3.27;;;2.97;;
9976;SDS011;5029;47.378;11.776;2022-08-20T14:49:16;3.00;;;2.80;;
9976;SDS011;5029;47.378;11.776;2022-08-20T14:54:20;2.87;;;2.67;;
9976;SDS011;5029;47.378;11.776;2022-08-20T14:59:25;3.97;;;2.70;;
9976;SDS011;5029;47.378;11.776;2022-08-20T15:04:28;3.00;;;2.80;;
9976;SDS011;5029;47.378;11.776;2022-08-20T15:09:33;2.60;;;2.40;;
9976;SDS011;5029;47.378;11.776;2022-08-20T15:14:39;2.93;;;2.30;;
9976;SDS011;5029;47.378;11.776;2022-08-20T15:19:42;2.77;;;2.57;;
9976;SDS011;5029;47.378;11.776;2022-08-20T15:24:46;3.00;;;2.80;;
9976;SDS011;5029;47.378;11.776;2022-08-20T15:29:57;4.13;;;2.90;;
9976;SDS011;5029;47.378;11.776;2022-08-20T15:35:06;3.63;;;3.33;;
9976;SDS011;5029;47.378;11.776;2022-08-20T15:40:12;3.40;;;3.10;;
9976;SDS011;5029;47.378;11.776;2022-08-20T15:45:20;3.17;;;2.97;;
9976;SDS011;5029;47.378;11.776;2022-08-20T15:50:39;2.77;;;2.57;;
9976;SDS011;5029;47.378;11.776;2022-08-20T15:56:33;3.40;;;3.10;;
9976;SDS011;5029;47.378;11.776;2022-08-20T16:02:01;3.00;;;2.80;;
9976;SDS011;5029;47.378;11.776;2022-08-20T16:32:31;3.70;;;3.40;;
9976;SDS011;5029;47.378;11.776;2022-08-20T16:37:40;4.10;;;3.80;;
9976;SDS011;5029;47.378;11.776;2022-08-20T16:42:53;3.20;;;3.00;;
9976;SDS011;5029;47.378;11.776;2022-08-20T16:48:02;3.60;;;3.30;;
9976;SDS011;5029;47.378;11.776;2022-08-20T16:53:10;4.37;;;3.97;;
9976;SDS011;5029;47.378;11.776;2022-08-20T16:58:20;4.67;;;4.27;;
9976;SDS011;5029;47.378;11.776;2022-08-20T17:03:26;3.60;;;3.40;;
9976;SDS011;5029;47.378;11.776;2022-08-20T17:08:45;2.90;;;2.70;;
9976;SDS011;5029;47.378;11.776;2022-08-20T17:14:00;2.73;;;2.53;;
9976;SDS011;5029;47.378;11.776;2022-08-20T17:19:11;2.50;;;2.30;;
9976;SDS011;5029;47.378;11.776;2022-08-20T17:24:23;2.70;;;2.50;;
9976;SDS011;5029;47.378;11.776;2022-08-20T17:29:29;2.97;;;2.70;;
9976;SDS011;5029;47.378;11.776;2022-08-20T17:34:43;5.27;;;3.30;;
9976;SDS011;5029;47.378;11.776;2022-08-20T17:40:04;2.97;;;2.77;;
9976;SDS011;5029;47.378;11.776;2022-08-20T17:45:13;3.30;;;2.97;;
9976;SDS011;5029;47.378;11.776;2022-08-20T17:50:28;2.40;;;2.20;;
9976;SDS011;5029;47.378;11.776;2022-08-20T17:55:38;3.27;;;2.97;;
9976;SDS011;5029;47.378;11.776;2022-08-20T18:00:43;4.47;;;3.63;;
9976;SDS011;5029;47.378;11.776;2022-08-20T18:05:50;5.70;;;2.80;;
9976;SDS011;5029;47.378;11.776;2022-08-20T18:11:00;3.90;;;2.57;;
9976;SDS011;5029;47.378;11.776;2022-08-20T18:16:09;3.07;;;2.87;;
9976;SDS011;5029;47.378;11.776;2022-08-20T18:21:36;3.50;;;3.00;;
9976;SDS011;5029;47.378;11.776;2022-08-20T18:26:54;3.87;;;2.80;;
9976;SDS011;5029;47.378;11.776;2022-08-20T18:32:23;3.27;;;2.60;;
9976;SDS011;5029;47.378;11.776;2022-08-20T18:37:32;4.67;;;3.30;;
9976;SDS011;5029;47.378;11.776;2022-08-20T18:42:36;2.70;;;2.50;;
9976;SDS011;5029;47.378;11.776;2022-08-20T18:47:42;2.80;;;2.00;;
9976;SDS011;5029;47.378;11.776;2022-08-20T18:52:49;2.50;;;2.10;;
9976;SDS011;5029;47.378;11.776;2022-08-20T18:58:10;3.13;;;2.40;;
9976;SDS011;5029;47.378;11.776;2022-08-20T19:03:17;2.23;;;2.13;;
9976;SDS011;5029;47.378;11.776;2022-08-20T19:08:34;2.30;;;2.20;;
9976;SDS011;5029;47.378;11.776;2022-08-20T19:13:50;11.90;;;3.30;;
9976;SDS011;5029;47.378;11.776;2022-08-20T19:39:23;3.00;;;2.23;;
9976;SDS011;5029;47.378;11.776;2022-08-20T20:10:34;2.47;;;2.20;;
9976;SDS011;5029;47.378;11.776;2022-08-20T20:22:54;2.97;;;2.40;;
9976;SDS011;5029;47.378;11.776;2022-08-20T20:35:27;2.67;;;2.47;;
